Time;durP1;ratioP1;P1;durP2;ratioP2;P2;SDS_P1;SDS_P2;PMS_P1;PMS_P2;Temp;Humidity;BMP_temperature;BMP_pressure;BME280_temperature;BME280_humidity;BME280_pressure;Samples;Min_cycle;Max_cycle;Signal;HPM_P1;HPM_P2
2023/06/28 00:01:43;;;;;;;4.40;2.70;;;;;;;13.98;97.27;100889.59;4837945;29;20492;-67
2023/06/28 00:04:14;;;;;;;6.00;3.60;;;;;;;13.94;98.13;100885.66;4841711;29;20445;-71
2023/06/28 00:06:44;;;;;;;5.73;3.80;;;;;;;13.93;96.72;100898.44;4834305;29;20485;-68
2023/06/28 00:09:13;;;;;;;6.90;4.37;;;;;;;13.92;96.92;100891.31;4838187;29;20497;-69
2023/06/28 00:11:41;;;;;;;6.20;3.70;;;;;;;13.84;97.55;100898.94;4828398;29;20446;-70
2023/06/28 00:14:12;;;;;;;7.33;3.30;;;;;;;13.72;99.23;100898.00;4830323;29;20459;-70
2023/06/28 00:16:41;;;;;;;4.77;3.00;;;;;;;13.80;98.27;100892.25;4830008;29;20465;-69
2023/06/28 00:19:10;;;;;;;5.70;3.87;;;;;;;13.80;99.68;100900.41;4895531;24;20497;-71
2023/06/28 00:21:40;;;;;;;10.60;3.57;;;;;;;13.81;98.65;100905.66;4847619;29;20533;-73
2023/06/28 00:24:09;;;;;;;5.17;3.27;;;;;;;13.70;100.00;100895.47;4850126;29;20445;-72
2023/06/28 00:26:38;;;;;;;7.23;4.03;;;;;;;13.71;99.89;100905.31;4843869;29;20505;-73
2023/06/28 00:29:12;;;;;;;7.30;3.73;;;;;;;13.70;99.44;100911.81;4831565;29;20814;-73
2023/06/28 00:31:42;;;;;;;7.97;4.07;;;;;;;13.66;100.00;100909.75;4846634;29;20441;-71
2023/06/28 00:34:11;;;;;;;7.33;4.07;;;;;;;13.66;100.00;100917.91;4839121;29;20506;-70
2023/06/28 00:36:40;;;;;;;9.90;3.50;;;;;;;13.69;100.00;100909.31;4827228;29;20461;-72
2023/06/28 00:39:15;;;;;;;4.80;3.70;;;;;;;13.62;100.00;100908.53;4831560;29;20849;-72
2023/06/28 00:41:44;;;;;;;4.40;3.67;;;;;;;13.65;100.00;100910.81;4849503;29;20453;-73
2023/06/28 00:44:19;;;;;;;6.77;4.30;;;;;;;13.63;100.00;100907.47;4829769;29;20522;-73
2023/06/28 00:46:49;;;;;;;5.23;4.10;;;;;;;13.56;100.00;100903.97;4831331;29;20526;-72
2023/06/28 00:49:18;;;;;;;7.27;4.53;;;;;;;13.56;100.00;100903.97;4836709;29;20440;-72
2023/06/28 00:51:48;;;;;;;4.83;3.20;;;;;;;13.48;100.00;100914.09;4843367;29;20454;-72
2023/06/28 00:54:17;;;;;;;3.60;3.30;;;;;;;13.56;100.00;100912.13;4832809;29;20437;-72
2023/06/28 00:56:48;;;;;;;6.70;4.00;;;;;;;13.58;100.00;100916.31;4847434;29;20993;-72
2023/06/28 00:59:21;;;;;;;8.23;5.13;;;;;;;13.54;100.00;100914.25;4830517;29;20445;-72
2023/06/28 01:01:52;;;;;;;5.57;3.90;;;;;;;13.50;100.00;100908.44;4832389;29;20986;-72
2023/06/28 01:04:21;;;;;;;8.40;4.87;;;;;;;13.56;100.00;100903.97;4843014;29;20449;-72
2023/06/28 01:06:54;;;;;;;6.67;4.20;;;;;;;13.63;100.00;100902.03;4833205;29;20481;-70
2023/06/28 01:09:28;;;;;;;5.83;4.37;;;;;;;13.68;100.00;100910.38;4830640;29;20649;-73
2023/06/28 01:11:59;;;;;;;10.67;4.53;;;;;;;13.65;100.00;100908.09;4833932;29;20441;-73
2023/06/28 01:14:31;;;;;;;10.63;4.40;;;;;;;13.62;100.00;100905.81;4826150;29;20438;-72
2023/06/28 01:17:00;;;;;;;13.50;4.27;;;;;;;13.67;100.00;100911.41;4831351;29;20518;-71
2023/06/28 01:19:31;;;;;;;5.80;5.23;;;;;;;13.62;100.00;100917.53;4826278;29;20578;-73
2023/06/28 01:22:05;;;;;;;8.30;3.80;;;;;;;13.67;100.00;100920.41;4842909;29;20869;-71
2023/06/28 01:24:37;;;;;;;6.17;4.17;;;;;;;13.72;100.00;100914.31;4826526;29;20967;-72
2023/06/28 01:27:11;;;;;;;8.73;4.00;;;;;;;13.78;100.00;100916.16;4824517;29;20490;-72
2023/06/28 01:29:42;;;;;;;8.40;4.10;;;;;;;13.71;100.00;100923.50;4829161;29;20452;-70
2023/06/28 01:32:12;;;;;;;10.43;6.23;;;;;;;13.66;100.00;100924.19;4828966;29;20438;-72
2023/06/28 01:34:41;;;;;;;11.97;3.90;;;;;;;13.62;100.00;100917.53;4826026;29;20936;-72
2023/06/28 01:37:10;;;;;;;3.70;3.40;;;;;;;13.58;100.00;100927.19;4833930;29;20530;-72
2023/06/28 01:39:41;;;;;;;5.27;4.77;;;;;;;13.63;100.00;100921.06;4827492;29;20450;-71
2023/06/28 01:42:11;;;;;;;5.67;4.03;;;;;;;13.73;100.00;100935.00;4830852;29;20424;-71
2023/06/28 01:44:40;;;;;;;13.73;4.30;;;;;;;13.73;99.78;100924.13;4828870;29;20477;-72
2023/06/28 01:47:09;;;;;;;14.23;4.23;;;;;;;13.67;100.00;100930.44;4822439;29;20480;-73
2023/06/28 01:49:39;;;;;;;10.60;4.90;;;;;;;13.66;100.00;100924.19;4828512;29;20498;-72
2023/06/28 01:52:09;;;;;;;8.90;4.40;;;;;;;13.61;100.00;100923.16;4829781;29;20855;-72
2023/06/28 01:54:40;;;;;;;11.60;3.93;;;;;;;13.51;100.00;100920.94;4826085;29;20416;-71
2023/06/28 01:57:10;;;;;;;5.90;4.07;;;;;;;13.50;100.00;100911.16;4842470;29;20470;-72
2023/06/28 01:59:39;;;;;;;12.47;4.93;;;;;;;13.42;100.00;100917.66;4839921;29;20449;-71
2023/06/28 02:02:15;;;;;;;7.53;3.83;;;;;;;13.46;100.00;100907.19;4831266;29;20438;-72
2023/06/28 02:04:46;;;;;;;9.33;4.20;;;;;;;13.43;100.00;100908.47;4840812;29;20441;-72
2023/06/28 02:07:16;;;;;;;10.43;4.10;;;;;;;13.38;100.00;100911.00;4827483;29;20922;-72
2023/06/28 02:09:48;;;;;;;11.47;5.20;;;;;;;13.31;100.00;100910.22;4842013;29;20504;-71
2023/06/28 02:12:17;;;;;;;5.47;3.90;;;;;;;13.39;100.00;100920.00;4824357;29;20482;-72
2023/06/28 02:14:46;;;;;;;10.93;4.87;;;;;;;13.47;100.00;100908.84;4830141;29;20494;-72
2023/06/28 02:17:15;;;;;;;13.23;4.90;;;;;;;13.56;100.00;100906.69;4830794;29;20949;-72
2023/06/28 02:19:45;;;;;;;9.53;4.33;;;;;;;13.54;100.00;100898.78;4830230;29;20512;-72
2023/06/28 02:22:14;;;;;;;7.83;4.50;;;;;;;13.57;100.00;100908.34;4824078;29;20494;-71
2023/06/28 02:24:44;;;;;;;4.77;3.50;;;;;;;13.65;100.00;100892.59;4827184;29;21003;-71
2023/06/28 02:27:14;;;;;;;9.33;5.23;;;;;;;13.67;100.00;100895.09;4832793;29;20565;-72
2023/06/28 02:29:46;;;;;;;6.03;4.10;;;;;;;13.67;100.00;100892.38;4837980;29;20422;-72
2023/06/28 02:32:15;;;;;;;15.43;4.50;;;;;;;13.71;100.00;100894.44;4830762;29;20449;-72
2023/06/28 02:34:45;;;;;;;7.30;4.30;;;;;;;13.70;100.00;100894.69;4846706;29;20441;-71
2023/06/28 02:37:14;;;;;;;11.43;4.20;;;;;;;13.70;100.00;100894.69;4828717;29;20548;-73
2023/06/28 02:39:43;;;;;;;5.03;3.83;;;;;;;13.81;100.00;100888.50;4825597;29;20486;-72
2023/06/28 02:42:14;;;;;;;9.60;6.50;;;;;;;13.86;100.00;100902.25;4828657;29;20452;-73
2023/06/28 02:44:43;;;;;;;12.90;4.80;;;;;;;13.79;100.00;100901.50;4829880;29;20449;-72
2023/06/28 02:47:13;;;;;;;11.63;4.37;;;;;;;13.75;100.00;100894.81;4834986;29;20491;-72
2023/06/28 02:49:42;;;;;;;9.00;5.40;;;;;;;13.86;100.00;100899.53;4842933;29;20501;-71
2023/06/28 02:52:14;;;;;;;9.90;4.40;;;;;;;13.81;100.00;100888.50;4837900;29;20520;-72
2023/06/28 02:54:44;;;;;;;8.23;3.90;;;;;;;13.83;99.98;100898.09;4840543;29;20946;-71
2023/06/28 02:57:15;;;;;;;8.87;4.90;;;;;;;13.75;100.00;100894.81;4825418;29;20473;-72
2023/06/28 02:59:53;;;;;;;11.13;4.57;;;;;;;13.86;99.46;100888.66;4827195;29;20489;-71
2023/06/28 03:02:22;;;;;;;7.00;5.40;;;;;;;13.84;99.44;100891.63;4831377;29;20799;-70
2023/06/28 03:05:20;;;;;;;6.70;4.50;;;;;;;13.84;99.66;100902.50;4834352;29;20548;-71
2023/06/28 03:07:50;;;;;;;11.83;4.13;;;;;;;13.88;99.70;100911.88;4833117;29;20504;-71
2023/06/28 03:10:19;;;;;;;9.33;3.80;;;;;;;13.88;99.47;100913.75;4832109;29;20935;-72
2023/06/28 03:12:50;;;;;;;8.70;4.37;;;;;;;13.89;100.00;100912.72;4846185;29;20552;-73
2023/06/28 03:15:20;;;;;;;7.10;6.40;;;;;;;13.93;99.45;100924.81;4844947;29;20546;-73
2023/06/28 03:17:53;;;;;;;7.67;3.97;;;;;;;13.91;99.54;100918.75;4832277;29;20468;-73
2023/06/28 03:20:22;;;;;;;6.10;3.53;;;;;;;13.87;99.51;100921.06;4831178;29;20464;-72
2023/06/28 03:22:52;;;;;;;5.10;3.90;;;;;;;13.98;99.62;100913.25;4830043;29;20506;-72
2023/06/28 03:25:21;;;;;;;6.50;4.03;;;;;;;13.94;99.59;100921.03;4828920;29;20443;-72
2023/06/28 03:27:51;;;;;;;13.90;4.20;;;;;;;14.04;100.00;100929.50;4831408;29;20553;-72
2023/06/28 03:30:21;;;;;;;6.43;3.53;;;;;;;13.96;99.46;100918.91;4834153;29;20503;-72
2023/06/28 03:32:54;;;;;;;8.97;4.13;;;;;;;14.03;99.71;100919.69;4837194;29;20483;-73
2023/06/28 03:35:23;;;;;;;4.80;3.50;;;;;;;14.07;99.35;100912.72;4826679;29;20495;-73
2023/06/28 03:37:53;;;;;;;7.27;3.70;;;;;;;14.03;99.79;100919.69;4839444;29;21003;-72
2023/06/28 03:40:23;;;;;;;9.97;4.97;;;;;;;14.01;99.78;100916.34;4830528;29;20437;-72
2023/06/28 03:42:54;;;;;;;7.13;3.93;;;;;;;14.06;100.00;100919.22;4830116;29;20788;-73
2023/06/28 03:45:23;;;;;;;12.80;3.80;;;;;;;14.09;99.03;100924.22;4847566;29;20798;-73
2023/06/28 03:47:53;;;;;;;7.57;4.00;;;;;;;14.10;99.13;100917.72;4836868;29;20456;-73
2023/06/28 03:50:22;;;;;;;5.83;3.23;;;;;;;14.12;98.86;100922.94;4836747;29;20452;-72
2023/06/28 03:52:51;;;;;;;6.37;3.20;;;;;;;14.08;98.25;100917.13;4832933;29;20424;-70
2023/06/28 03:55:21;;;;;;;4.80;4.40;;;;;;;14.13;98.85;100914.56;4834517;29;20441;-71
2023/06/28 03:57:50;;;;;;;5.37;3.53;;;;;;;14.09;98.50;100920.66;4830800;29;20553;-70
2023/06/28 04:00:23;;;;;;;10.27;3.27;;;;;;;14.12;98.65;100917.50;4843808;29;20542;-71
2023/06/28 04:02:52;;;;;;;9.93;3.60;;;;;;;14.17;98.32;100923.09;4834293;29;20461;-71
2023/06/28 04:05:21;;;;;;;8.20;4.70;;;;;;;14.14;98.70;100920.81;4839739;29;20447;-71
2023/06/28 04:07:57;;;;;;;8.57;3.70;;;;;;;14.09;98.05;100913.31;4838704;29;20499;-72
2023/06/28 04:10:26;;;;;;;6.93;3.60;;;;;;;14.16;98.94;100914.09;4830314;29;20433;-73
2023/06/28 04:13:14;;;;;;;7.00;3.80;;;;;;;14.22;98.54;100915.94;4828672;29;20432;-73
2023/06/28 04:15:45;;;;;;;7.10;3.27;;;;;;;14.22;97.91;100923.25;4827545;29;20907;-72
2023/06/28 04:18:14;;;;;;;12.80;4.40;;;;;;;14.19;98.40;100919.09;4835142;29;20420;-72
2023/06/28 04:20:43;;;;;;;7.87;4.00;;;;;;;14.31;97.85;100927.34;4834314;29;20434;-71
2023/06/28 04:23:12;;;;;;;4.77;3.43;;;;;;;14.29;97.57;100935.72;4831928;29;20413;-72
2023/06/28 04:25:46;;;;;;;8.77;3.53;;;;;;;14.32;97.50;100934.47;4826261;29;20457;-72
2023/06/28 04:28:15;;;;;;;6.60;4.50;;;;;;;14.42;97.26;100942.97;4844407;29;20567;-71
2023/06/28 04:30:46;;;;;;;5.70;3.40;;;;;;;14.44;97.21;100942.72;4831133;29;20433;-74
2023/06/28 04:33:18;;;;;;;4.60;3.50;;;;;;;14.43;96.14;100949.22;4826285;29;20508;-72
2023/06/28 04:35:47;;;;;;;8.67;3.73;;;;;;;14.50;95.94;100948.09;4827723;29;20445;-72
2023/06/28 04:38:19;;;;;;;4.90;3.80;;;;;;;14.55;95.39;100956.44;4827304;29;20845;-72
2023/06/28 04:40:48;;;;;;;5.10;3.97;;;;;;;14.58;94.46;100964.13;4823454;29;20512;-71
2023/06/28 04:43:20;;;;;;;5.50;3.00;;;;;;;14.59;94.89;100962.25;4841399;29;20510;-72
2023/06/28 04:45:51;;;;;;;7.20;4.13;;;;;;;14.82;93.94;100958.81;4834950;29;20922;-71
2023/06/28 04:48:20;;;;;;;7.63;5.10;;;;;;;14.90;92.38;100959.38;4826465;29;20445;-71
2023/06/28 04:50:51;;;;;;;8.07;4.17;;;;;;;14.92;91.86;100950.94;4830708;29;20452;-72
2023/06/28 04:53:20;;;;;;;5.87;4.00;;;;;;;14.87;92.07;100948.06;4834108;29;20438;-72
2023/06/28 04:55:49;;;;;;;9.00;4.27;;;;;;;15.02;91.22;100953.97;4830971;29;20429;-72
2023/06/28 04:58:19;;;;;;;6.20;3.67;;;;;;;14.97;91.42;100949.19;4828160;29;20428;-71
2023/06/28 05:00:48;;;;;;;9.40;4.53;;;;;;;15.14;91.78;100955.69;4828734;29;20442;-72
2023/06/28 05:03:18;;;;;;;6.57;4.30;;;;;;;15.13;90.36;100950.47;4831028;29;20408;-73
2023/06/28 05:05:48;;;;;;;8.13;4.80;;;;;;;15.21;90.07;100956.41;4827061;29;20543;-73
2023/06/28 05:08:17;;;;;;;5.00;4.50;;;;;;;15.28;89.26;100958.22;4824417;29;21031;-73
2023/06/28 05:10:46;;;;;;;14.30;4.50;;;;;;;15.13;89.98;100956.75;4841185;29;20603;-74
2023/06/28 05:13:16;;;;;;;8.40;3.23;;;;;;;15.27;90.46;100964.75;4826855;29;20954;-74
2023/06/28 05:15:48;;;;;;;4.40;3.60;;;;;;;15.47;88.15;100960.66;4827967;29;20449;-74
2023/06/28 05:18:19;;;;;;;6.27;3.80;;;;;;;15.62;88.65;100963.00;4828410;29;20538;-74
2023/06/28 05:20:49;;;;;;;9.97;4.30;;;;;;;15.62;86.59;100965.72;4830127;29;20479;-76
2023/06/28 05:23:20;;;;;;;9.73;3.90;;;;;;;15.58;87.09;100970.00;4825317;29;20466;-74
2023/06/28 05:25:49;;;;;;;7.33;3.67;;;;;;;17.02;81.05;100971.16;4828707;29;20511;-73
2023/06/28 05:28:19;;;;;;;5.20;3.63;;;;;;;16.52;80.35;100966.25;4829924;29;20448;-73
2023/06/28 05:30:48;;;;;;;9.80;6.10;;;;;;;17.25;77.94;100963.69;4828143;29;20474;-73
2023/06/28 05:33:20;;;;;;;5.80;2.90;;;;;;;17.60;75.70;100965.47;4828668;29;20890;-74
2023/06/28 05:35:49;;;;;;;5.63;4.17;;;;;;;17.36;76.39;100971.03;4829833;29;20965;-75
2023/06/28 05:38:19;;;;;;;6.50;3.30;;;;;;;17.03;78.75;100967.38;4829119;29;20436;-73
2023/06/28 05:40:53;;;;;;;7.20;4.03;;;;;;;16.82;80.23;100969.69;4827980;29;20555;-74
2023/06/28 05:43:23;;;;;;;5.30;3.27;;;;;;;16.80;80.53;100966.34;4831946;29;20465;-73
2023/06/28 05:45:54;;;;;;;4.60;3.30;;;;;;;16.59;80.36;100980.66;4825868;29;20419;-75
2023/06/28 05:48:25;;;;;;;7.93;4.17;;;;;;;16.42;81.37;100982.41;4827790;29;20438;-74
2023/06/28 05:50:55;;;;;;;8.43;3.43;;;;;;;16.59;81.43;100975.19;4828187;29;20445;-72
2023/06/28 05:53:24;;;;;;;4.30;3.40;;;;;;;16.77;80.40;100972.31;4825357;29;20438;-73
2023/06/28 05:55:53;;;;;;;5.87;4.10;;;;;;;16.80;81.21;100973.69;4824254;29;20489;-74
2023/06/28 05:58:22;;;;;;;4.27;2.97;;;;;;;16.69;80.74;100969.13;4827057;29;20417;-74
2023/06/28 06:01:08;;;;;;;6.37;3.40;;;;;;;16.58;81.47;100965.31;4828185;29;20445;-76
2023/06/28 06:03:39;;;;;;;5.43;3.13;;;;;;;16.59;81.00;100977.09;4830593;29;20493;-71
2023/06/28 06:06:08;;;;;;;7.53;4.43;;;;;;;16.60;81.11;100976.03;4829937;29;20438;-70
2023/06/28 06:08:38;;;;;;;7.43;3.80;;;;;;;16.98;79.75;100968.09;4830542;29;20455;-71
2023/06/28 06:11:07;;;;;;;7.30;4.10;;;;;;;16.98;78.65;100972.72;4827377;29;20844;-71
2023/06/28 06:13:39;;;;;;;14.77;3.43;;;;;;;16.87;79.57;100972.50;4826169;29;20854;-71
2023/06/28 06:16:08;;;;;;;7.53;3.40;;;;;;;17.07;77.52;100974.00;4827588;29;20440;-73
2023/06/28 06:18:40;;;;;;;6.07;3.40;;;;;;;17.04;78.26;100975.31;4826497;29;20433;-72
2023/06/28 06:21:10;;;;;;;4.63;3.20;;;;;;;16.92;77.66;100975.34;4844193;24;20494;-72
2023/06/28 06:23:39;;;;;;;5.50;3.33;;;;;;;16.83;79.14;100981.44;4819525;29;20905;-70
2023/06/28 06:26:08;;;;;;;10.97;3.83;;;;;;;16.55;79.59;100984.91;4823659;29;20454;-70
2023/06/28 06:28:37;;;;;;;5.37;2.90;;;;;;;16.79;78.27;100981.09;4823919;29;20942;-71
2023/06/28 06:31:13;;;;;;;3.13;2.83;;;;;;;16.95;78.24;100980.31;4825185;29;20927;-69
2023/06/28 06:33:43;;;;;;;3.90;2.60;;;;;;;17.24;75.38;100978.44;4826065;29;20461;-69
2023/06/28 06:36:13;;;;;;;7.70;3.27;;;;;;;17.38;73.98;100984.44;4820730;29;20459;-69
2023/06/28 06:38:42;;;;;;;5.27;3.47;;;;;;;17.27;74.57;100988.09;4824968;29;20477;-73
2023/06/28 06:41:11;;;;;;;11.67;3.30;;;;;;;17.85;73.73;100985.06;4825187;29;20446;-69
2023/06/28 06:43:41;;;;;;;6.60;4.57;;;;;;;17.82;71.95;100980.06;4825173;29;20457;-70
2023/06/28 06:46:10;;;;;;;6.70;2.80;;;;;;;17.87;72.02;100985.63;4832290;29;20458;-68
2023/06/28 06:48:40;;;;;;;7.47;2.83;;;;;;;17.71;71.14;100981.00;4844111;29;20804;-70
2023/06/28 06:51:10;;;;;;;3.83;2.63;;;;;;;17.38;71.31;100981.72;4842415;29;20827;-70
2023/06/28 06:53:39;;;;;;;9.17;3.10;;;;;;;17.37;71.05;100993.75;4842122;29;20455;-71
2023/06/28 06:56:08;;;;;;;7.43;2.83;;;;;;;17.27;73.03;100988.09;4842412;29;20467;-73
2023/06/28 06:58:38;;;;;;;4.53;2.40;;;;;;;17.27;71.03;100988.09;4846718;29;20470;-70
2023/06/28 07:01:07;;;;;;;4.07;2.70;;;;;;;17.04;71.11;100991.72;4841788;29;20408;-69
2023/06/28 07:03:36;;;;;;;5.90;2.50;;;;;;;17.18;71.44;100987.66;4844764;29;20414;-69
2023/06/28 07:06:05;;;;;;;5.20;2.60;;;;;;;17.35;70.53;100991.25;4859301;29;20531;-70
2023/06/28 07:08:36;;;;;;;10.67;4.07;;;;;;;17.50;68.79;101001.66;4843273;29;20416;-70
2023/06/28 07:11:05;;;;;;;17.43;3.23;;;;;;;17.54;67.74;100994.59;4844662;29;20492;-70
2023/06/28 07:13:34;;;;;;;10.50;3.07;;;;;;;17.88;66.67;100995.53;4844917;29;20870;-70
2023/06/28 07:16:04;;;;;;;5.27;2.40;;;;;;;17.77;66.11;100999.16;4845733;29;20411;-71
2023/06/28 07:18:33;;;;;;;5.23;3.03;;;;;;;17.90;65.36;100998.03;4842970;29;20807;-69
2023/06/28 07:21:02;;;;;;;7.63;2.77;;;;;;;18.03;64.96;101014.13;4843750;29;20870;-73
2023/06/28 07:23:31;;;;;;;4.60;2.97;;;;;;;18.21;64.68;101000.16;4846268;29;20414;-71
2023/06/28 07:26:02;;;;;;;5.80;2.67;;;;;;;18.71;64.73;101000.13;4842052;29;20432;-69
2023/06/28 07:28:31;;;;;;;3.80;2.87;;;;;;;19.16;62.75;101007.28;4845881;29;20411;-70
2023/06/28 07:31:00;;;;;;;7.20;2.60;;;;;;;19.23;62.11;101011.47;4841369;29;21033;-70
2023/06/28 07:33:29;;;;;;;4.37;2.77;;;;;;;18.99;62.69;101012.81;4841193;29;20420;-70
2023/06/28 07:35:59;;;;;;;3.43;2.00;;;;;;;18.67;62.36;101016.25;4841714;29;20419;-70
2023/06/28 07:38:28;;;;;;;3.80;2.83;;;;;;;18.65;63.07;101015.66;4844695;29;20516;-71
2023/06/28 07:40:57;;;;;;;7.10;2.70;;;;;;;18.73;62.57;101016.34;4841809;29;20429;-70
2023/06/28 07:43:28;;;;;;;4.93;2.47;;;;;;;18.72;62.61;101009.19;4841066;29;20424;-72
2023/06/28 07:45:59;;;;;;;7.87;3.80;;;;;;;18.98;63.24;101019.38;4844730;29;20580;-69
2023/06/28 07:48:28;;;;;;;8.50;2.57;;;;;;;19.24;60.25;101015.06;4843384;29;20420;-71
2023/06/28 07:50:57;;;;;;;4.13;2.50;;;;;;;18.87;61.68;101021.19;4842120;29;20455;-70
2023/06/28 07:53:26;;;;;;;4.53;2.53;;;;;;;18.65;61.26;101032.13;4843078;29;20432;-71
2023/06/28 07:55:55;;;;;;;6.00;2.70;;;;;;;18.46;62.20;101014.25;4841565;29;20830;-70
2023/06/28 07:58:25;;;;;;;3.80;2.07;;;;;;;18.61;61.50;101020.00;4845492;29;20795;-70
2023/06/28 08:00:55;;;;;;;6.40;2.63;;;;;;;18.54;62.14;101021.28;4844421;29;20977;-69
2023/06/28 08:03:24;;;;;;;2.50;2.10;;;;;;;18.41;62.12;101019.66;4843798;29;20915;-70
2023/06/28 08:05:54;;;;;;;6.60;3.10;;;;;;;18.47;61.72;101023.31;4842002;29;20447;-68
2023/06/28 08:08:23;;;;;;;5.73;2.30;;;;;;;18.65;60.92;101012.94;4844954;29;20407;-69
2023/06/28 08:10:52;;;;;;;5.50;2.47;;;;;;;18.94;59.75;101007.28;4843604;29;20486;-68
2023/06/28 08:13:21;;;;;;;3.20;2.37;;;;;;;18.96;60.12;101024.31;4842350;29;20431;-70
2023/06/28 08:15:50;;;;;;;5.73;2.73;;;;;;;19.00;59.65;101026.28;4843686;29;20411;-68
2023/06/28 08:18:21;;;;;;;6.23;2.30;;;;;;;18.94;60.15;101016.34;4843307;29;21006;-71
2023/06/28 08:20:51;;;;;;;3.00;2.60;;;;;;;19.02;61.15;101017.81;4842508;29;20555;-70
2023/06/28 08:23:21;;;;;;;8.10;2.27;;;;;;;19.07;59.99;101012.41;4842474;29;20426;-71
2023/06/28 08:25:50;;;;;;;5.00;2.00;;;;;;;19.17;60.37;101026.22;4843347;29;20424;-70
2023/06/28 08:28:19;;;;;;;4.80;2.60;;;;;;;19.56;59.46;101023.44;4846204;29;20714;-73
2023/06/28 08:30:48;;;;;;;5.47;2.57;;;;;;;19.70;58.11;101024.66;4851243;29;20444;-68
2023/06/28 08:33:18;;;;;;;5.53;2.90;;;;;;;20.23;57.49;101023.78;4846941;29;20449;-72
2023/06/28 08:35:48;;;;;;;3.87;2.67;;;;;;;20.67;55.66;101029.88;4854561;29;20465;-69
2023/06/28 08:38:17;;;;;;;4.50;2.83;;;;;;;20.14;56.22;101025.34;4843205;29;21055;-71
2023/06/28 08:40:48;;;;;;;4.23;2.40;;;;;;;19.89;57.17;101024.03;4844604;29;20773;-69
2023/06/28 08:43:19;;;;;;;3.73;2.50;;;;;;;19.45;56.82;101028.81;4839890;29;20433;-71
2023/06/28 08:45:49;;;;;;;4.00;2.60;;;;;;;19.77;56.93;101030.75;4841807;29;20547;-70
2023/06/28 08:48:19;;;;;;;4.27;2.67;;;;;;;19.91;55.37;101030.09;4841843;29;20531;-71
2023/06/28 08:51:00;;;;;;;3.00;1.70;;;;;;;20.16;55.59;101034.97;4841147;29;20508;-71
2023/06/28 08:53:29;;;;;;;4.23;2.30;;;;;;;20.56;54.03;101028.16;4854798;29;20796;-70
2023/06/28 08:56:00;;;;;;;3.10;2.30;;;;;;;20.33;52.93;101027.44;4841126;29;20533;-71
2023/06/28 08:58:31;;;;;;;3.97;2.30;;;;;;;20.14;52.72;101037.13;4858131;29;20432;-70
2023/06/28 09:01:01;;;;;;;2.20;1.70;;;;;;;20.18;52.35;101024.56;4844441;29;20931;-70
2023/06/28 09:03:32;;;;;;;8.50;2.20;;;;;;;20.32;51.92;101031.28;4855600;29;20876;-71
2023/06/28 09:06:03;;;;;;;3.43;2.50;;;;;;;20.55;49.38;101034.75;4841156;29;20908;-70
2023/06/28 09:08:32;;;;;;;2.47;2.27;;;;;;;20.61;51.15;101028.19;4841652;29;20450;-71
2023/06/28 09:11:02;;;;;;;5.90;2.37;;;;;;;21.15;51.70;101037.88;4844064;29;20454;-72
2023/06/28 09:13:32;;;;;;;2.40;2.07;;;;;;;21.18;51.93;101034.59;4842402;29;20469;-70
2023/06/28 09:16:01;;;;;;;6.00;2.40;;;;;;;21.74;51.62;101029.22;4840358;29;20468;-72
2023/06/28 09:18:30;;;;;;;4.77;2.13;;;;;;;21.86;50.63;101020.72;4843086;29;20854;-71
2023/06/28 09:20:59;;;;;;;3.27;2.30;;;;;;;21.32;50.63;101034.06;4841622;29;20782;-72
2023/06/28 09:23:31;;;;;;;8.27;2.50;;;;;;;20.87;51.41;101029.97;4840592;29;20503;-70
2023/06/28 09:26:01;;;;;;;3.10;2.30;;;;;;;20.94;50.43;101027.84;4841504;29;21027;-72
2023/06/28 09:28:39;;;;;;;3.00;2.20;;;;;;;21.31;49.90;101030.47;4844941;29;20453;-69
2023/06/28 09:31:10;;;;;;;4.80;1.73;;;;;;;21.19;50.35;101033.50;4842091;29;20472;-69
2023/06/28 09:33:39;;;;;;;2.60;2.23;;;;;;;21.27;49.69;101042.31;4842732;29;20497;-72
2023/06/28 09:36:11;;;;;;;5.57;2.47;;;;;;;21.28;48.39;101031.03;4843897;29;21042;-67
2023/06/28 09:38:46;;;;;;;6.43;2.20;;;;;;;20.83;49.60;101037.94;4854761;29;20790;-70
2023/06/28 09:41:15;;;;;;;7.93;2.30;;;;;;;21.39;48.74;101040.16;4841606;29;20411;-70
2023/06/28 09:43:44;;;;;;;4.30;1.93;;;;;;;21.39;48.59;101037.41;4844107;29;20421;-70
2023/06/28 09:46:15;;;;;;;3.43;2.07;;;;;;;21.62;49.51;101036.91;4841593;29;20527;-70
2023/06/28 09:48:46;;;;;;;5.47;2.60;;;;;;;21.84;47.42;101040.25;4842435;29;20429;-70
2023/06/28 09:51:17;;;;;;;6.80;2.10;;;;;;;21.84;48.06;101034.75;4841135;29;20488;-71
2023/06/28 09:53:52;;;;;;;5.17;2.20;;;;;;;21.92;47.75;101048.00;4846947;29;20451;-71
2023/06/28 09:56:33;;;;;;;4.60;1.83;;;;;;;21.47;47.26;101045.13;4840672;29;21010;-72
2023/06/28 09:59:06;;;;;;;4.07;1.93;;;;;;;21.98;46.96;101049.66;4845522;29;20411;-71
2023/06/28 10:01:40;;;;;;;5.40;2.63;;;;;;;22.33;46.10;101050.78;4837761;29;20461;-70
2023/06/28 10:04:11;;;;;;;2.63;2.10;;;;;;;22.27;46.15;101043.66;4840862;29;20411;-69
2023/06/28 10:06:44;;;;;;;4.10;1.83;;;;;;;22.27;46.01;101038.94;4844051;29;20972;-70
2023/06/28 10:09:17;;;;;;;2.93;1.90;;;;;;;21.64;46.64;101035.53;4843811;29;20796;-70
2023/06/28 10:11:47;;;;;;;3.23;1.87;;;;;;;21.27;47.73;101056.06;4839573;29;20866;-74
2023/06/28 10:14:18;;;;;;;2.60;2.10;;;;;;;21.25;47.59;101048.91;4839451;29;20873;-72
2023/06/28 10:16:50;;;;;;;4.33;2.20;;;;;;;21.74;47.67;101054.00;4845014;29;20520;-72
2023/06/28 10:19:20;;;;;;;6.20;2.43;;;;;;;21.96;46.43;101054.66;4838674;29;20449;-72
2023/06/28 10:21:49;;;;;;;4.87;2.33;;;;;;;21.40;47.04;101044.53;4839236;29;21119;-69
2023/06/28 10:24:20;;;;;;;2.67;1.93;;;;;;;21.23;48.16;101045.59;4839782;29;20411;-70
2023/06/28 10:26:50;;;;;;;2.27;1.90;;;;;;;21.37;47.91;101059.69;4842465;29;20832;-72
2023/06/28 10:29:20;;;;;;;6.77;3.03;;;;;;;21.07;48.19;101052.09;4840120;29;20418;-71
2023/06/28 10:31:50;;;;;;;6.07;1.70;;;;;;;21.67;47.38;101057.03;4840714;29;20459;-70
2023/06/28 10:34:21;;;;;;;2.40;1.80;;;;;;;22.16;47.57;101044.75;4838272;29;20411;-72
2023/06/28 10:36:51;;;;;;;3.03;1.40;;;;;;;21.79;46.97;101044.94;4843561;29;20465;-73
2023/06/28 10:39:21;;;;;;;6.60;2.30;;;;;;;21.82;47.94;101042.47;4838489;29;20416;-73
2023/06/28 10:41:56;;;;;;;9.50;2.50;;;;;;;22.29;46.33;101052.44;4840541;29;20415;-70
2023/06/28 10:44:26;;;;;;;3.40;2.40;;;;;;;21.89;47.05;101040.25;4837886;29;20785;-71
2023/06/28 10:47:10;;;;;;;2.80;2.40;;;;;;;22.10;47.59;101036.47;4843522;29;20465;-67
2023/06/28 10:49:41;;;;;;;2.70;2.20;;;;;;;22.13;47.44;101045.28;4838178;29;20962;-71
2023/06/28 10:52:17;;;;;;;4.63;2.10;;;;;;;21.87;47.13;101052.66;4843180;29;21412;-69
2023/06/28 10:54:49;;;;;;;3.40;1.83;;;;;;;22.30;46.76;101046.66;4843266;29;20449;-71
2023/06/28 10:57:18;;;;;;;4.30;1.90;;;;;;;22.64;45.33;101038.63;4842191;29;21036;-71
2023/06/28 10:59:47;;;;;;;7.10;1.83;;;;;;;22.54;46.14;101041.41;4844394;29;20423;-70
2023/06/28 11:02:16;;;;;;;4.90;2.13;;;;;;;22.03;47.15;101044.16;4840575;29;20479;-70
2023/06/28 11:04:52;;;;;;;4.77;2.47;;;;;;;22.06;46.97;101054.66;4843318;29;20459;-71
2023/06/28 11:07:23;;;;;;;2.13;1.60;;;;;;;21.92;47.07;101053.50;4845452;29;20475;-70
2023/06/28 11:10:16;;;;;;;4.50;1.77;;;;;;;22.30;46.44;101056.88;4845563;29;20509;-70
2023/06/28 11:12:48;;;;;;;6.33;2.10;;;;;;;22.44;45.98;101044.19;4841467;29;20447;-70
2023/06/28 11:15:29;;;;;;;3.10;2.03;;;;;;;22.24;46.74;101055.19;4854636;29;20443;-70
2023/06/28 11:18:12;;;;;;;3.70;2.07;;;;;;;22.01;46.94;101051.06;4841425;29;21016;-69
2023/06/28 11:20:53;;;;;;;3.10;1.90;;;;;;;22.44;46.98;101055.19;4842027;29;20879;-71
2023/06/28 11:23:28;;;;;;;6.37;2.00;;;;;;;22.39;46.35;101046.94;4846044;29;20422;-69
2023/06/28 11:26:04;;;;;;;5.57;1.80;;;;;;;22.37;46.22;101052.72;4845895;29;20896;-72
2023/06/28 11:28:35;;;;;;;3.20;2.10;;;;;;;23.11;44.89;101059.50;4846852;29;20444;-70
2023/06/28 11:31:15;;;;;;;3.40;2.00;;;;;;;23.16;44.77;101048.44;4843704;29;20611;-71
2023/06/28 11:33:45;;;;;;;3.10;2.23;;;;;;;23.05;45.15;101050.41;4842930;29;20415;-72
2023/06/28 11:36:15;;;;;;;5.17;2.20;;;;;;;22.65;45.35;101053.25;4844560;29;20981;-70
2023/06/28 11:38:46;;;;;;;5.57;2.23;;;;;;;22.32;46.03;101058.22;4845235;29;20443;-72